Terminal Aerodrome Forecast
Issued by NWS

Home | Current Version | Previous Version | Text Only | Print | Product List | Glossary On
Versions: 1 2 3 4 5 6 7 8 9 10 11 12 13 14 15 16 17 18 19 20 21 22 23 24 25 26 27 28 29 30 31 32 33 34 35 36
553
FTUS44 KHGX 120533
TAFSGR
TAF
KSGR 120533Z 1206/1306 19006KT P6SM SKC
     FM120900 22003KT 6SM MIFG SCT005
      TEMPO 1211/1215 3SM BR SCT003
     FM121600 25009KT P6SM SCT012
     FM130100 VRB04KT P6SM SCT030=

USA.gov is the U.S. government's official web portal to all federal, state and local government web resources and services.